createdAt,value
2018-09-13T00:00:11.939Z,1.90
2018-09-13T00:02:40.120Z,2.07
2018-09-13T00:05:08.413Z,2.50
2018-09-13T00:07:36.617Z,3.03
2018-09-13T00:10:04.800Z,2.70
2018-09-13T00:12:32.979Z,3.57
2018-09-13T00:15:01.146Z,2.90
2018-09-13T00:17:29.341Z,2.70
2018-09-13T00:19:57.517Z,2.50
2018-09-13T00:22:25.736Z,2.43
2018-09-13T00:24:53.917Z,2.20
2018-09-13T00:27:22.284Z,2.27
2018-09-13T00:29:50.460Z,2.77
2018-09-13T00:32:18.640Z,2.17
2018-09-13T00:34:46.818Z,3.40
2018-09-13T00:37:15.031Z,3.13
2018-09-13T00:39:43.212Z,2.67
2018-09-13T00:42:11.387Z,2.80
2018-09-13T00:44:39.563Z,2.47
2018-09-13T00:47:11.699Z,2.43
2018-09-13T00:49:40.250Z,3.10
2018-09-13T00:52:08.543Z,2.30
2018-09-13T00:54:36.736Z,3.17
2018-09-13T00:57:05.014Z,2.73
2018-09-13T00:59:33.206Z,3.20
2018-09-13T01:02:01.393Z,2.83
2018-09-13T01:04:29.569Z,3.13
2018-09-13T01:06:57.830Z,2.97
2018-09-13T01:09:26.023Z,3.40
2018-09-13T01:11:54.208Z,2.60
2018-09-13T01:14:22.408Z,2.40
2018-09-13T01:16:50.706Z,2.83
2018-09-13T01:19:18.875Z,2.50
2018-09-13T01:21:47.053Z,2.13
2018-09-13T01:24:15.247Z,2.83
2018-09-13T01:26:43.511Z,2.73
2018-09-13T01:29:11.682Z,2.50
2018-09-13T01:31:39.910Z,3.13
2018-09-13T01:34:08.088Z,2.57
2018-09-13T01:36:36.289Z,3.00
2018-09-13T01:39:06.385Z,3.07
2018-09-13T01:41:34.556Z,3.23
2018-09-13T01:44:02.731Z,3.67
2018-09-13T01:46:30.929Z,2.83
2018-09-13T01:48:59.143Z,2.43
2018-09-13T01:51:27.381Z,2.70
2018-09-13T01:53:55.535Z,2.00
2018-09-13T01:56:23.830Z,2.90
2018-09-13T01:58:52.036Z,3.07
2018-09-13T02:01:20.277Z,1.97
2018-09-13T02:03:48.476Z,2.80
2018-09-13T02:06:16.707Z,3.17
2018-09-13T02:08:44.883Z,3.07
2018-09-13T02:11:13.099Z,2.93
2018-09-13T02:13:41.288Z,2.90
2018-09-13T02:16:09.507Z,2.80
2018-09-13T02:18:37.846Z,3.03
2018-09-13T02:21:06.044Z,2.63
2018-09-13T02:23:34.232Z,2.70
2018-09-13T02:26:02.523Z,3.17
2018-09-13T02:28:30.725Z,2.50
2018-09-13T02:30:58.920Z,2.90
2018-09-13T02:33:27.119Z,3.03
2018-09-13T02:35:55.308Z,2.53
2018-09-13T02:38:23.491Z,2.87
2018-09-13T02:40:51.649Z,3.40
2018-09-13T02:43:19.863Z,2.10
2018-09-13T02:45:48.290Z,3.17
2018-09-13T02:48:16.493Z,2.80
2018-09-13T02:50:44.690Z,3.53
2018-09-13T02:53:13.045Z,2.30
2018-09-13T02:55:41.302Z,3.40
2018-09-13T02:58:09.590Z,2.80
2018-09-13T03:00:37.781Z,3.73
2018-09-13T03:03:06.108Z,2.53
2018-09-13T03:05:34.312Z,3.40
2018-09-13T03:08:02.606Z,2.50
2018-09-13T03:10:30.797Z,2.40
2018-09-13T03:12:58.977Z,2.40
2018-09-13T03:15:27.260Z,2.63
2018-09-13T03:17:55.466Z,3.20
2018-09-13T03:20:23.704Z,3.03
2018-09-13T03:22:51.935Z,3.93
2018-09-13T03:25:20.263Z,2.47
2018-09-13T03:27:48.506Z,3.43
2018-09-13T03:30:17.055Z,3.10
2018-09-13T03:32:45.257Z,2.60
2018-09-13T03:35:13.538Z,3.27
2018-09-13T03:37:41.712Z,4.10
2018-09-13T03:40:09.915Z,3.87
2018-09-13T03:42:38.116Z,3.53
2018-09-13T03:45:06.352Z,3.53
2018-09-13T03:47:34.526Z,3.57
2018-09-13T03:50:02.877Z,2.90
2018-09-13T03:52:31.057Z,3.03
2018-09-13T03:54:59.328Z,3.10
2018-09-13T03:57:27.505Z,2.50
2018-09-13T03:59:55.704Z,3.20
2018-09-13T04:02:23.943Z,3.03
2018-09-13T04:04:52.155Z,4.40
2018-09-13T04:07:20.413Z,3.60
2018-09-13T04:09:48.579Z,3.40
2018-09-13T04:12:16.772Z,3.77
2018-09-13T04:14:44.944Z,4.00
2018-09-13T04:17:13.179Z,3.70
2018-09-13T04:19:43.921Z,3.73
2018-09-13T04:22:12.991Z,4.27
2018-09-13T04:24:41.591Z,3.77
2018-09-13T04:27:10.264Z,3.40
2018-09-13T04:29:38.573Z,3.10
2018-09-13T04:32:06.760Z,3.37
2018-09-13T04:34:35.332Z,4.07
2018-09-13T04:37:03.640Z,3.10
2018-09-13T04:39:31.832Z,3.83
2018-09-13T04:42:00.030Z,3.73
2018-09-13T04:44:28.201Z,3.57
2018-09-13T04:46:56.426Z,4.30
2018-09-13T04:49:24.645Z,3.00
2018-09-13T04:51:52.887Z,3.53
2018-09-13T04:54:21.230Z,3.50
2018-09-13T04:56:49.494Z,4.13
2018-09-13T04:59:17.674Z,4.20
2018-09-13T05:01:45.853Z,3.47
2018-09-13T05:04:14.059Z,3.30
2018-09-13T05:06:42.424Z,3.33
2018-09-13T05:09:12.185Z,4.30
2018-09-13T05:11:40.402Z,4.10
2018-09-13T05:14:08.568Z,4.00
2018-09-13T05:16:36.851Z,3.93
2018-09-13T05:19:05.108Z,3.03
2018-09-13T05:21:33.868Z,3.57
2018-09-13T05:24:02.479Z,3.23
2018-09-13T05:26:30.769Z,2.90
2018-09-13T05:28:58.936Z,3.37
2018-09-13T05:31:27.148Z,4.33
2018-09-13T05:33:55.306Z,3.97
2018-09-13T05:36:23.524Z,3.53
2018-09-13T05:38:51.753Z,4.00
2018-09-13T05:41:19.916Z,3.10
2018-09-13T05:43:48.394Z,3.60
2018-09-13T05:46:16.664Z,2.97
2018-09-13T05:48:44.857Z,3.70
2018-09-13T05:51:13.119Z,3.87
2018-09-13T05:53:41.245Z,3.20
2018-09-13T05:56:09.476Z,3.60
2018-09-13T05:58:37.633Z,3.40
2018-09-13T06:01:05.816Z,3.30
2018-09-13T06:03:34.023Z,3.17
2018-09-13T06:06:02.261Z,3.53
2018-09-13T06:08:30.465Z,3.53
2018-09-13T06:10:58.638Z,3.40
2018-09-13T06:13:26.853Z,3.30
2018-09-13T06:15:55.164Z,3.13
2018-09-13T06:18:23.352Z,3.87
2018-09-13T06:20:51.524Z,4.80
2018-09-13T06:23:19.719Z,3.87
2018-09-13T06:25:47.944Z,3.60
2018-09-13T06:28:16.119Z,3.17
2018-09-13T06:30:44.311Z,4.73
2018-09-13T06:33:12.491Z,3.90
2018-09-13T06:35:40.755Z,4.30
2018-09-13T06:38:08.923Z,3.57
2018-09-13T06:40:37.273Z,3.70
2018-09-13T06:43:05.525Z,3.60
2018-09-13T06:45:33.738Z,3.03
2018-09-13T06:48:01.942Z,3.23
2018-09-13T06:50:30.123Z,3.03
2018-09-13T06:52:58.326Z,3.80
2018-09-13T06:55:26.551Z,3.20
2018-09-13T06:57:54.810Z,2.80
2018-09-13T07:00:23.014Z,3.40
2018-09-13T07:02:51.184Z,3.80
2018-09-13T07:06:48.903Z,3.53
2018-09-13T07:09:17.108Z,3.17
2018-09-13T07:11:45.771Z,3.40
2018-09-13T07:14:14.144Z,3.17
2018-09-13T07:16:42.351Z,3.20
2018-09-13T07:19:10.623Z,2.50
2018-09-13T07:21:38.820Z,2.40
2018-09-13T07:24:07.022Z,2.90
2018-09-13T07:26:35.298Z,2.33
2018-09-13T07:29:03.498Z,2.20
2018-09-13T07:31:31.689Z,2.57
2018-09-13T07:33:59.874Z,2.37
2018-09-13T07:36:28.154Z,2.27
2018-09-13T07:38:56.336Z,2.77
2018-09-13T07:41:24.536Z,1.73
2018-09-13T07:43:52.733Z,2.10
2018-09-13T07:46:20.934Z,2.03
2018-09-13T07:48:49.120Z,3.07
2018-09-13T07:51:17.352Z,2.30
2018-09-13T07:53:45.504Z,3.10
2018-09-13T07:56:13.751Z,2.10
2018-09-13T07:58:41.920Z,3.10
2018-09-13T08:01:10.119Z,2.43
2018-09-13T08:03:38.324Z,3.93
2018-09-13T08:06:07.110Z,1.90
2018-09-13T08:08:35.350Z,2.20
2018-09-13T08:11:03.569Z,3.00
2018-09-13T08:13:31.756Z,3.10
2018-09-13T08:16:00.125Z,2.20
2018-09-13T08:18:28.252Z,1.93
2018-09-13T08:20:56.424Z,2.00
2018-09-13T08:23:24.652Z,1.80
2018-09-13T08:25:52.975Z,1.73
2018-09-13T08:28:21.148Z,1.97
2018-09-13T08:30:49.381Z,2.47
2018-09-13T08:33:17.674Z,2.50
2018-09-13T08:35:45.853Z,2.00
2018-09-13T08:38:14.062Z,2.13
2018-09-13T08:40:42.295Z,3.07
2018-09-13T08:43:10.546Z,2.27
2018-09-13T08:45:38.743Z,2.00
2018-09-13T08:48:06.975Z,2.20
2018-09-13T08:50:35.164Z,2.10
2018-09-13T08:53:03.673Z,2.57
2018-09-13T08:55:31.959Z,2.50
2018-09-13T08:58:00.141Z,1.83
2018-09-13T09:00:28.320Z,2.50
2018-09-13T09:02:56.519Z,2.07
2018-09-13T09:05:24.788Z,2.63
2018-09-13T09:07:52.997Z,3.40
2018-09-13T09:10:21.195Z,2.37
2018-09-13T09:12:49.384Z,3.20
2018-09-13T09:15:17.641Z,2.67
2018-09-13T09:17:45.889Z,2.97
2018-09-13T09:20:14.071Z,2.37
2018-09-13T09:22:42.292Z,3.70
2018-09-13T09:25:10.562Z,3.70
2018-09-13T09:27:38.897Z,3.80
2018-09-13T09:30:07.261Z,3.63
2018-09-13T09:32:35.672Z,3.87
2018-09-13T09:35:04.319Z,2.97
2018-09-13T09:37:32.613Z,4.60
2018-09-13T09:40:01.008Z,2.63
2018-09-13T09:42:29.204Z,3.00
2018-09-13T09:44:57.556Z,3.47
2018-09-13T09:47:26.000Z,2.80
2018-09-13T09:49:54.290Z,2.40
2018-09-13T09:52:22.671Z,2.80
2018-09-13T09:54:50.780Z,3.70
2018-09-13T09:57:19.078Z,2.67
2018-09-13T09:59:47.259Z,2.33
2018-09-13T10:02:19.861Z,2.60
2018-09-13T10:04:48.654Z,3.50
2018-09-13T10:07:16.912Z,3.03
2018-09-13T10:09:45.331Z,2.53
2018-09-13T10:12:14.014Z,2.27
2018-09-13T10:14:42.706Z,3.90
2018-09-13T10:17:16.537Z,2.13
2018-09-13T10:19:50.072Z,2.43
2018-09-13T10:22:23.851Z,2.53
2018-09-13T10:24:57.481Z,2.47
2018-09-13T10:27:31.017Z,2.53
2018-09-13T10:30:04.752Z,2.30
2018-09-13T10:32:38.341Z,2.50
2018-09-13T10:35:12.033Z,2.17
2018-09-13T10:37:45.736Z,2.57
2018-09-13T10:40:19.460Z,2.47
2018-09-13T10:42:53.074Z,1.87
2018-09-13T10:45:31.332Z,2.03
2018-09-13T10:48:05.128Z,2.87
2018-09-13T10:50:37.536Z,2.50
2018-09-13T10:53:11.483Z,1.47
2018-09-13T10:55:39.875Z,3.00
2018-09-13T10:58:07.917Z,2.50
2018-09-13T11:00:36.120Z,2.60
2018-09-13T11:03:04.332Z,2.13
2018-09-13T11:05:32.608Z,2.80
2018-09-13T11:08:00.768Z,1.80
2018-09-13T11:10:29.032Z,2.47
2018-09-13T11:13:02.840Z,2.10
2018-09-13T11:15:34.377Z,1.80
2018-09-13T11:18:03.605Z,2.93
2018-09-13T11:20:32.552Z,2.00
2018-09-13T11:23:00.750Z,2.20
2018-09-13T11:25:28.956Z,2.53
2018-09-13T11:27:57.129Z,2.57
2018-09-13T11:30:25.730Z,2.10
2018-09-13T11:32:53.906Z,2.67
2018-09-13T11:35:22.215Z,2.30
2018-09-13T11:37:50.399Z,2.00
2018-09-13T11:40:18.748Z,2.30
2018-09-13T11:42:46.883Z,3.67
2018-09-13T11:45:15.277Z,1.90
2018-09-13T11:47:43.477Z,2.90
2018-09-13T11:50:11.653Z,2.10
2018-09-13T11:52:39.837Z,2.57
2018-09-13T11:55:08.243Z,2.23
2018-09-13T11:57:36.614Z,2.77
2018-09-13T12:00:04.976Z,2.00
2018-09-13T12:02:33.161Z,2.67
2018-09-13T12:05:01.508Z,2.37
2018-09-13T12:07:29.740Z,2.40
2018-09-13T12:09:57.927Z,2.50
2018-09-13T12:12:26.120Z,2.10
2018-09-13T12:14:54.302Z,2.73
2018-09-13T12:17:22.572Z,2.00
2018-09-13T12:19:50.736Z,2.60
2018-09-13T12:22:18.956Z,2.30
2018-09-13T12:24:47.133Z,2.23
2018-09-13T12:27:15.328Z,2.23
2018-09-13T12:29:43.529Z,2.97
2018-09-13T12:32:11.712Z,2.10
2018-09-13T12:34:39.901Z,2.67
2018-09-13T12:37:08.143Z,2.23
2018-09-13T12:39:36.313Z,2.60
2018-09-13T12:42:04.493Z,1.57
2018-09-13T12:44:32.669Z,3.07
2018-09-13T12:47:00.919Z,2.23
2018-09-13T12:49:29.111Z,1.90
2018-09-13T12:51:57.274Z,2.57
2018-09-13T12:54:25.499Z,1.83
2018-09-13T12:56:53.748Z,3.20
2018-09-13T12:59:21.999Z,1.93
2018-09-13T13:01:50.200Z,2.50
2018-09-13T13:04:18.451Z,2.30
2018-09-13T13:06:46.749Z,3.50
2018-09-13T13:09:14.911Z,2.43
2018-09-13T13:11:43.104Z,2.40
2018-09-13T13:14:11.307Z,2.10
2018-09-13T13:16:39.724Z,2.30
2018-09-13T13:19:07.857Z,2.17
2018-09-13T13:21:36.335Z,2.60
2018-09-13T13:24:04.522Z,2.73
2018-09-13T13:26:32.725Z,2.90
2018-09-13T13:29:00.995Z,2.33
2018-09-13T13:31:29.227Z,2.03
2018-09-13T13:33:57.415Z,1.93
2018-09-13T13:36:25.687Z,1.60
2018-09-13T13:38:53.869Z,3.10
2018-09-13T13:41:22.085Z,2.13
2018-09-13T13:43:50.298Z,2.07
2018-09-13T13:46:18.550Z,2.10
2018-09-13T13:48:46.735Z,3.20
2018-09-13T13:51:14.932Z,2.10
2018-09-13T13:53:43.153Z,2.20
2018-09-13T13:56:11.418Z,2.10
2018-09-13T13:58:39.647Z,2.33
2018-09-13T14:01:07.908Z,1.87
2018-09-13T14:03:36.107Z,2.30
2018-09-13T14:06:04.320Z,2.20
2018-09-13T14:08:32.485Z,1.90
2018-09-13T14:11:00.696Z,2.10
2018-09-13T14:13:28.893Z,2.20
2018-09-13T14:15:57.163Z,1.70
2018-09-13T14:18:25.357Z,1.87
2018-09-13T14:20:53.694Z,2.73
2018-09-13T14:23:21.853Z,2.00
2018-09-13T14:25:50.113Z,2.90
2018-09-13T14:28:18.309Z,1.83
2018-09-13T14:30:46.546Z,2.63
2018-09-13T14:33:14.758Z,1.87
2018-09-13T14:35:43.052Z,2.67
2018-09-13T14:38:11.278Z,2.43
2018-09-13T14:40:39.977Z,2.50
2018-09-13T14:43:08.149Z,1.97
2018-09-13T14:45:36.374Z,2.13
2018-09-13T14:48:05.089Z,1.87
2018-09-13T14:50:33.256Z,2.80
2018-09-13T14:53:01.454Z,2.33
2018-09-13T14:55:29.828Z,3.13
2018-09-13T14:57:58.284Z,2.10
2018-09-13T15:00:26.488Z,1.90
2018-09-13T15:02:54.781Z,2.60
2018-09-13T15:05:23.105Z,1.60
2018-09-13T15:07:51.312Z,1.97
2018-09-13T15:10:19.520Z,2.23
2018-09-13T15:12:47.779Z,3.27
2018-09-13T15:15:16.291Z,3.00
2018-09-13T15:17:44.531Z,2.57
2018-09-13T15:20:12.733Z,1.70
2018-09-13T15:22:41.184Z,2.53
2018-09-13T15:25:09.472Z,4.57
2018-09-13T15:27:37.669Z,2.73
2018-09-13T15:30:06.592Z,2.63
2018-09-13T15:32:34.789Z,2.57
2018-09-13T15:35:02.981Z,1.93
2018-09-13T15:37:31.148Z,2.40
2018-09-13T15:39:59.365Z,2.70
2018-09-13T15:42:27.684Z,2.73
2018-09-13T15:44:55.952Z,2.63
2018-09-13T15:47:24.404Z,2.20
2018-09-13T15:49:52.667Z,2.37
2018-09-13T15:52:20.940Z,2.20
2018-09-13T15:54:49.159Z,1.63
2018-09-13T15:57:17.453Z,2.30
2018-09-13T15:59:45.659Z,1.93
2018-09-13T16:02:14.216Z,2.87
2018-09-13T16:04:42.439Z,2.17
2018-09-13T16:07:10.654Z,2.30
2018-09-13T16:09:38.864Z,2.10
2018-09-13T16:12:07.112Z,2.63
2018-09-13T16:14:35.318Z,2.40
2018-09-13T16:17:03.564Z,1.97
2018-09-13T16:19:31.773Z,2.03
2018-09-13T16:22:00.059Z,2.90
2018-09-13T16:24:28.306Z,1.93
2018-09-13T16:26:57.155Z,2.40
2018-09-13T16:29:26.108Z,2.43
2018-09-13T16:31:54.336Z,2.23
2018-09-13T16:34:22.608Z,2.47
2018-09-13T16:37:10.623Z,1.87
2018-09-13T16:39:45.571Z,2.50
2018-09-13T16:42:19.192Z,1.93
2018-09-13T16:44:50.807Z,2.40
2018-09-13T16:47:30.826Z,2.40
2018-09-13T16:50:00.362Z,2.00
2018-09-13T16:52:29.364Z,2.80
2018-09-13T16:54:57.585Z,3.07
2018-09-13T16:57:25.806Z,2.60
2018-09-13T16:59:54.012Z,2.10
2018-09-13T17:02:22.299Z,2.80
2018-09-13T17:04:50.584Z,2.43
2018-09-13T17:07:19.225Z,2.23
2018-09-13T17:09:47.486Z,2.00
2018-09-13T17:12:15.648Z,2.23
2018-09-13T17:14:43.848Z,3.17
2018-09-13T17:17:12.061Z,2.40
2018-09-13T17:19:40.261Z,2.93
2018-09-13T17:22:08.691Z,2.20
2018-09-13T17:24:36.873Z,2.30
2018-09-13T17:27:05.255Z,2.00
2018-09-13T17:29:33.414Z,2.90
2018-09-13T17:32:01.592Z,2.17
2018-09-13T17:34:29.784Z,3.53
2018-09-13T17:36:58.040Z,3.73
2018-09-13T17:39:26.220Z,2.20
2018-09-13T17:41:54.504Z,2.60
2018-09-13T17:44:22.724Z,2.70
2018-09-13T17:46:50.936Z,2.17
2018-09-13T17:49:19.150Z,2.30
2018-09-13T17:51:47.327Z,3.00
2018-09-13T17:54:15.542Z,2.43
2018-09-13T17:56:43.891Z,2.77
2018-09-13T17:59:12.068Z,2.30
2018-09-13T18:01:40.244Z,2.50
2018-09-13T18:04:08.464Z,1.90
2018-09-13T18:06:36.713Z,3.10
2018-09-13T18:09:07.636Z,1.93
2018-09-13T18:11:35.857Z,2.60
2018-09-13T18:14:04.157Z,3.30
2018-09-13T18:16:32.409Z,2.97
2018-09-13T18:19:00.588Z,3.43
2018-09-13T18:21:28.776Z,2.30
2018-09-13T18:23:56.980Z,2.93
2018-09-13T18:26:25.237Z,2.30
2018-09-13T18:28:53.449Z,3.00
2018-09-13T18:31:21.706Z,2.07
2018-09-13T18:33:49.897Z,2.43
2018-09-13T18:36:18.220Z,3.43
2018-09-13T18:38:46.433Z,3.07
2018-09-13T18:41:14.620Z,2.70
2018-09-13T18:43:42.809Z,2.70
2018-09-13T18:46:11.125Z,2.20
2018-09-13T18:48:39.307Z,2.30
2018-09-13T18:51:07.542Z,2.17
2018-09-13T18:53:35.744Z,2.63
2018-09-13T18:56:35.053Z,2.33
2018-09-13T18:59:03.284Z,2.70
2018-09-13T19:01:31.464Z,1.97
2018-09-13T19:03:59.647Z,2.43
2018-09-13T19:06:27.926Z,2.10
2018-09-13T19:08:56.088Z,3.17
2018-09-13T19:11:24.395Z,2.10
2018-09-13T19:13:52.567Z,2.13
2018-09-13T19:16:20.918Z,1.80
2018-09-13T19:18:49.096Z,4.33
2018-09-13T19:21:17.328Z,2.27
2018-09-13T19:23:45.533Z,2.23
2018-09-13T19:26:13.916Z,2.50
2018-09-13T19:28:42.423Z,2.47
2018-09-13T19:31:10.678Z,2.20
2018-09-13T19:33:38.820Z,2.50
2018-09-13T19:36:07.120Z,2.10
2018-09-13T19:38:42.020Z,2.80
2018-09-13T19:41:10.464Z,2.93
2018-09-13T19:43:38.746Z,2.80
2018-09-13T19:46:07.073Z,2.17
2018-09-13T19:48:35.260Z,3.00
2018-09-13T19:51:03.615Z,2.80
2018-09-13T19:53:31.720Z,3.00
2018-09-13T19:56:00.013Z,2.20
2018-09-13T19:58:28.215Z,2.70
2018-09-13T20:00:56.407Z,3.20
2018-09-13T20:03:24.601Z,2.30
2018-09-13T20:05:53.156Z,2.90
2018-09-13T20:08:21.454Z,2.77
2018-09-13T20:10:49.652Z,3.73
2018-09-13T20:13:17.847Z,2.57
2018-09-13T20:15:46.123Z,2.23
2018-09-13T20:18:14.478Z,2.47
2018-09-13T20:20:42.809Z,2.50
2018-09-13T20:23:11.003Z,3.10
2018-09-13T20:25:39.423Z,3.20
2018-09-13T20:28:07.609Z,2.37
2018-09-13T20:30:36.034Z,3.03
2018-09-13T20:33:04.327Z,2.50
2018-09-13T20:35:32.579Z,2.80
2018-09-13T20:38:00.878Z,2.90
2018-09-13T20:40:29.076Z,3.00
2018-09-13T20:42:57.268Z,3.23
2018-09-13T20:45:25.584Z,2.67
2018-09-13T20:47:53.750Z,3.00
2018-09-13T20:50:21.957Z,3.30
2018-09-13T20:52:50.184Z,4.77
2018-09-13T20:55:18.463Z,3.13
2018-09-13T20:57:46.676Z,2.57
2018-09-13T21:00:18.018Z,2.70
2018-09-13T21:02:46.889Z,2.93
2018-09-13T21:06:18.552Z,2.93
2018-09-13T21:08:46.794Z,4.03
2018-09-13T21:11:14.987Z,2.17
2018-09-13T21:13:43.265Z,3.20
2018-09-13T21:16:11.525Z,3.63
2018-09-13T21:18:39.715Z,3.70
2018-09-13T21:21:07.891Z,3.30
2018-09-13T21:23:36.088Z,4.13
2018-09-13T21:26:04.402Z,3.20
2018-09-13T21:28:32.617Z,4.00
2018-09-13T21:31:00.776Z,3.53
2018-09-13T21:33:28.947Z,3.63
2018-09-13T21:35:57.204Z,3.20
2018-09-13T21:38:25.393Z,3.60
2018-09-13T21:40:53.579Z,4.17
2018-09-13T21:43:21.825Z,3.90
2018-09-13T21:45:50.081Z,3.30
2018-09-13T21:48:18.293Z,3.70
2018-09-13T21:50:46.575Z,3.40
2018-09-13T21:53:14.800Z,3.53
2018-09-13T21:55:43.387Z,4.30
2018-09-13T21:58:11.616Z,3.53
2018-09-13T22:00:39.832Z,4.43
2018-09-13T22:03:08.000Z,3.77
2018-09-13T22:05:36.272Z,4.90
2018-09-13T22:08:04.452Z,3.97
2018-09-13T22:13:07.420Z,5.07
2018-09-13T22:15:35.648Z,4.30
2018-09-13T22:18:03.820Z,4.57
2018-09-13T22:20:32.064Z,4.10
2018-09-13T22:23:00.348Z,5.10
2018-09-13T22:25:28.632Z,4.13
2018-09-13T22:27:56.848Z,4.60
2018-09-13T22:30:25.044Z,4.77
2018-09-13T22:32:53.278Z,5.87
2018-09-13T22:35:21.546Z,4.07
2018-09-13T22:37:49.794Z,4.60
2018-09-13T22:40:17.976Z,4.63
2018-09-13T22:42:46.185Z,4.73
2018-09-13T22:45:14.437Z,4.37
2018-09-13T22:47:42.629Z,4.20
2018-09-13T22:50:10.871Z,4.03
2018-09-13T22:52:39.059Z,4.57
2018-09-13T22:55:07.419Z,4.73
2018-09-13T22:57:35.619Z,5.00
2018-09-13T23:00:03.872Z,5.50
2018-09-13T23:02:36.344Z,4.67
2018-09-13T23:05:04.544Z,5.40
2018-09-13T23:07:32.794Z,5.23
2018-09-13T23:10:00.972Z,5.00
2018-09-13T23:12:29.166Z,4.90
2018-09-13T23:14:57.339Z,5.70
2018-09-13T23:17:25.589Z,5.10
2018-09-13T23:19:53.734Z,5.37
2018-09-13T23:22:21.920Z,6.13
2018-09-13T23:24:50.118Z,5.30
2018-09-13T23:27:18.393Z,5.30
2018-09-13T23:29:46.560Z,5.03
2018-09-13T23:32:14.743Z,5.17
2018-09-13T23:34:43.032Z,5.40
2018-09-13T23:37:11.285Z,4.80
2018-09-13T23:39:39.830Z,5.73
2018-09-13T23:42:07.710Z,5.07
2018-09-13T23:44:35.923Z,4.87
2018-09-13T23:47:04.216Z,5.27
2018-09-13T23:49:32.400Z,5.17
2018-09-13T23:52:00.581Z,4.63
2018-09-13T23:54:28.751Z,4.60
2018-09-13T23:56:56.983Z,5.33
2018-09-13T23:59:25.176Z,4.93
